Map

Track Data

SID SEASON NUMBER BASIN SUBBASIN NAME ISO_TIME NATURE LAT LON WMO_WIND WMO_PRES WMO_AGENCY TRACK_TYPE DIST2LAND LANDFALL IFLAG USA_AGENCY USA_ATCF_ID USA_LAT USA_LON USA_RECORD USA_STATUS USA_WIND USA_PRES USA_SSHS USA_R34_NE USA_R34_SE USA_R34_SW USA_R34_NW USA_R50_NE USA_R50_SE USA_R50_SW USA_R50_NW USA_R64_NE USA_R64_SE USA_R64_SW USA_R64_NW USA_POCI USA_ROCI USA_RMW USA_EYE TOKYO_LAT TOKYO_LON TOKYO_GRADE TOKYO_WIND TOKYO_PRES TOKYO_R50_DIR TOKYO_R50_LONG TOKYO_R50_SHORT TOKYO_R30_DIR TOKYO_R30_LONG TOKYO_R30_SHORT TOKYO_LAND CMA_LAT CMA_LON CMA_CAT CMA_WIND CMA_PRES HKO_LAT HKO_LON HKO_CAT HKO_WIND HKO_PRES NEWDELHI_LAT NEWDELHI_LON NEWDELHI_GRADE NEWDELHI_WIND NEWDELHI_PRES NEWDELHI_CI NEWDELHI_DP NEWDELHI_POCI REUNION_LAT REUNION_LON REUNION_TYPE REUNION_WIND REUNION_PRES REUNION_TNUM REUNION_CI REUNION_RMW REUNION_R34_NE REUNION_R34_SE REUNION_R34_SW REUNION_R34_NW REUNION_R50_NE REUNION_R50_SE REUNION_R50_SW REUNION_R50_NW REUNION_R64_NE REUNION_R64_SE REUNION_R64_SW REUNION_R64_NW BOM_LAT BOM_LON BOM_TYPE BOM_WIND BOM_PRES BOM_TNUM BOM_CI BOM_RMW BOM_R34_NE BOM_R34_SE BOM_R34_SW BOM_R34_NW BOM_R50_NE BOM_R50_SE BOM_R50_SW BOM_R50_NW BOM_R64_NE BOM_R64_SE BOM_R64_SW BOM_R64_NW BOM_ROCI BOM_POCI BOM_EYE BOM_POS_METHOD BOM_PRES_METHOD NADI_LAT NADI_LON NADI_CAT NADI_WIND NADI_PRES WELLINGTON_LAT WELLINGTON_LON WELLINGTON_WIND WELLINGTON_PRES DS824_LAT DS824_LON DS824_STAGE DS824_WIND DS824_PRES TD9636_LAT TD9636_LON TD9636_STAGE TD9636_WIND TD9636_PRES TD9635_LAT TD9635_LON TD9635_WIND TD9635_PRES TD9635_ROCI NEUMANN_LAT NEUMANN_LON NEUMANN_CLASS NEUMANN_WIND NEUMANN_PRES MLC_LAT MLC_LON MLC_CLASS MLC_WIND MLC_PRES USA_GUST BOM_GUST BOM_GUST_PER REUNION_GUST REUNION_GUST_PER USA_SEAHGT USA_SEARAD_NE USA_SEARAD_SE USA_SEARAD_SW USA_SEARAD_NW STORM_SPEED STORM_DIR
1867209N18303 1867 11 NA NA NOT_NAMED 1867-07-28 00:00:00 TS 18.5000 -56.6000 70 hurdat_atl main 949 886 O_____________ hurdat_atl AL021867 18.5000 -56.6000 HU 70 1 12 280
1867209N18303 1867 11 NA NA NOT_NAMED 1867-07-28 03:00:00 TS 18.6029 -57.1998 main 886 822 P_____________ AL021867 18.6029 -57.1998 HU 70 1 12 280
1867209N18303 1867 11 NA NA NOT_NAMED 1867-07-28 06:00:00 TS 18.7000 -57.8000 70 hurdat_atl main 822 760 O_____________ hurdat_atl AL021867 18.7000 -57.8000 HU 70 1 12 279
1867209N18303 1867 11 NA NA NOT_NAMED 1867-07-28 09:00:00 TS 18.7923 -58.4002 main 760 717 P_____________ AL021867 18.7923 -58.4002 HU 70 1 10 264
1867209N18303 1867 11 NA NA NOT_NAMED 1867-07-28 12:00:00 TS 18.6000 -58.8667 70 hurdat_atl main 706 654 O____________O hurdat_atl AL021867 18.9000 -59.0000 HU 70 1 16.2000 -57.8000 TS 40 10 254
1867209N18303 1867 11 NA NA NOT_NAMED 1867-07-28 15:00:00 TS 18.5213 -59.3945 main 654 590 P____________P AL021867 19.0421 -59.5776 HU 70 1 16.4383 -58.6622 TS 42 11 266
1867209N18303 1867 11 NA NA NOT_NAMED 1867-07-28 18:00:00 TS 18.5182 -60.0091 70 hurdat_atl main 590 517 O____________O hurdat_atl AL021867 19.2000 -60.2000 HU 70 1 16.7000 -59.5000 TS 45 13 272
1867209N18303 1867 11 NA NA NOT_NAMED 1867-07-28 21:00:00 TS 18.5615 -60.7235 main 517 434 P____________P AL021867 19.3425 -60.9352 HU 70 1 16.9995 -60.3001 TS 45 14 280
1867209N18303 1867 11 NA NA NOT_NAMED 1867-07-29 00:00:00 TS 18.7667 -61.5000 70 hurdat_atl main 434 362 O____________O hurdat_atl AL021867 19.5000 -61.7000 HU 70 1 17.3000 -61.1000 TS 45 15 286
1867209N18303 1867 11 NA NA NOT_NAMED 1867-07-29 03:00:00 TS 18.9655 -62.2529 main 354 287 P____________P AL021867 19.6771 -62.4078 HU 70 1 17.5422 -61.9430 TS 50 15 287
1867209N18303 1867 11 NA NA NOT_NAMED 1867-07-29 06:00:00 TS 19.2000 -63.0000 70 hurdat_atl main 287 234 O____________O hurdat_atl AL021867 19.9000 -63.1000 HU 70 1 17.8000 -62.8000 TS 55 15 290
1867209N18303 1867 11 NA NA NOT_NAMED 1867-07-29 09:00:00 TS 19.4864 -63.7553 main 225 194 P____________P AL021867 20.1923 -63.8074 HU 70 1 18.0747 -63.6511 TS 55 16 294
1867209N18303 1867 11 NA NA NOT_NAMED 1867-07-29 12:00:00 TS 19.8333 -64.5000 70 hurdat_atl main 194 192 O____________O hurdat_atl AL021867 20.5000 -64.5000 HU 70 1 18.5000 -64.5000 TS 55 16 298
1867209N18303 1867 11 NA NA NOT_NAMED 1867-07-29 15:00:00 TS 20.2172 -65.2246 main 205 203 P____________P AL021867 20.7272 -65.1582 HU 70 1 19.1972 -65.3572 TS 57 16 302
1867209N18303 1867 11 NA NA NOT_NAMED 1867-07-29 18:00:00 TS 20.6667 -65.9333 70 hurdat_atl main 257 257 O____________O hurdat_atl AL021867 21.0000 -65.8000 HU 70 1 20.0000 -66.2000 TS 60 16 306
1867209N18303 1867 11 NA NA NOT_NAMED 1867-07-29 21:00:00 TS 21.1872 -66.6386 main 313 313 P____________P AL021867 21.4273 -66.4573 HU 70 1 20.7069 -67.0010 TS 60 17 309
1867209N18303 1867 11 NA NA NOT_NAMED 1867-07-30 00:00:00 TS 21.7333 -67.3333 70 hurdat_atl main 339 336 O____________O hurdat_atl AL021867 21.9000 -67.1000 HU 70 1 21.4000 -67.8000 TS 60 17 309
1867209N18303 1867 11 NA NA NOT_NAMED 1867-07-30 03:00:00 TS 22.2380 -68.0197 main 351 351 P____________P AL021867 22.3072 -67.7080 HU 70 1 22.0997 -68.6432 TS 62 16 308
1867209N18303 1867 11 NA NA NOT_NAMED 1867-07-30 06:00:00 TS 22.7333 -68.7000 70 hurdat_atl main 371 371 O____________O hurdat_atl AL021867 22.7000 -68.3000 HU 70 1 22.8000 -69.5000 HU 65 16 308
1867209N18303 1867 11 NA NA NOT_NAMED 1867-07-30 09:00:00 TS 23.2407 -69.3936 main 399 399 P____________P AL021867 23.0771 -68.8859 HU 75 1 23.5678 -70.4089 HU 70 16 309
1867209N18303 1867 11 NA NA NOT_NAMED 1867-07-30 12:00:00 TS 23.7333 -70.0667 80 hurdat_atl main 408 402 O____________O hurdat_atl AL021867 23.5000 -69.5000 HU 80 1 24.2000 -71.2000 HU 75 15 308
1867209N18303 1867 11 NA NA NOT_NAMED 1867-07-30 15:00:00 TS 24.1856 -70.7013 main 409 404 P____________P AL021867 24.0426 -70.1997 HU 80 1 24.4716 -71.7047 HU 75 14 309
1867209N18303 1867 11 NA NA NOT_NAMED 1867-07-30 18:00:00 TS 24.6333 -71.3000 80 hurdat_atl main 418 418 O____________O hurdat_atl AL021867 24.6000 -70.9000 HU 80 1 24.7000 -72.1000 HU 75 14 310
1867209N18303 1867 11 NA NA NOT_NAMED 1867-07-30 21:00:00 TS 25.0938 -71.8749 main 450 450 P____________P AL021867 25.0420 -71.5088 HU 80 1 25.1976 -72.6072 HU 75 14 313
1867209N18303 1867 11 NA NA NOT_NAMED 1867-07-31 00:00:00 TS 25.6000 -72.4333 80 hurdat_atl main 495 494 O____________O hurdat_atl AL021867 25.5000 -72.1000 HU 80 1 25.8000 -73.1000 HU 75 15 317
1867209N18303 1867 11 NA NA NOT_NAMED 1867-07-31 03:00:00 TS 26.1925 -73.0199 main 508 483 P____________P AL021867 26.0927 -72.7720 HU 80 1 26.3923 -73.5155 HU 75 16 320
1867209N18303 1867 11 NA NA NOT_NAMED 1867-07-31 06:00:00 TS 26.8000 -73.5667 80 hurdat_atl main 478 466 O____________O hurdat_atl AL021867 26.7000 -73.4000 HU 80 1 27.0000 -73.9000 HU 75 15 322
1867209N18303 1867 11 NA NA NOT_NAMED 1867-07-31 09:00:00 TS 27.3581 -74.0354 main 474 462 P____________P AL021867 27.2371 -73.8956 HU 80 1 27.6000 -74.3152 HU 75 13 324
1867209N18303 1867 11 NA NA NOT_NAMED 1867-07-31 12:00:00 TS 27.8667 -74.4333 80 hurdat_atl main 475 467 O____________O hurdat_atl AL021867 27.7000 -74.3000 HU 80 1 28.2000 -74.7000 HU 75 12 325
1867209N18303 1867 11 NA NA NOT_NAMED 1867-07-31 15:00:00 TS 28.3048 -74.7824 main 478 478 P____________P AL021867 28.0497 -74.6584 HU 80 1 28.8149 -75.0302 HU 75 10 326
1867209N18303 1867 11 NA NA NOT_NAMED 1867-07-31 18:00:00 TS 28.7333 -75.1000 80 hurdat_atl main 494 494 O____________O hurdat_atl AL021867 28.4000 -75.0000 HU 80 1 29.4000 -75.3000 HU 75 11 327
1867209N18303 1867 11 NA NA NOT_NAMED 1867-07-31 21:00:00 TS 29.2134 -75.4509 main 492 475 P____________P AL021867 28.8551 -75.4149 HU 80 1 29.9299 -75.5228 HU 77 12 330
1867209N18303 1867 11 NA NA NOT_NAMED 1867-08-01 00:00:00 TS 29.7333 -75.7667 80 hurdat_atl main 475 440 O____________O hurdat_atl AL021867 29.4000 -75.8000 HU 80 1 30.4000 -75.7000 HU 80 12 335
1867209N18303 1867 11 NA NA NOT_NAMED 1867-08-01 03:00:00 TS 30.2824 -76.0234 main 440 384 P____________P AL021867 30.0274 -76.0951 HU 80 1 30.7925 -75.8800 HU 82 12 342
1867209N18303 1867 11 NA NA NOT_NAMED 1867-08-01 06:00:00 TS 30.8667 -76.2000 80 hurdat_atl main 374 320 O____________O hurdat_atl AL021867 30.7000 -76.3000 HU 80 1 31.2000 -76.0000 HU 85 12 348
1867209N18303 1867 11 NA NA NOT_NAMED 1867-08-01 09:00:00 TS 31.4832 -76.3288 main 311 255 P____________P AL021867 31.3499 -76.4745 HU 85 2 31.7500 -76.0376 HU 87 12 355
1867209N18303 1867 11 NA NA NOT_NAMED 1867-08-01 12:00:00 TS 32.1000 -76.3333 90 hurdat_atl main 255 221 O____________O hurdat_atl AL021867 32.0000 -76.5000 HU 90 2 32.3000 -76.0000 HU 90 12 5
1867209N18303 1867 11 NA NA NOT_NAMED 1867-08-01 15:00:00 TS 32.6615 -76.2031 main 213 173 P____________P AL021867 32.6424 -76.3325 HU 90 2 32.6999 -75.9445 HU 90 12 17
1867209N18303 1867 11 NA NA NOT_NAMED 1867-08-01 18:00:00 TS 33.2333 -75.9333 90 hurdat_atl main 176 129 O____________O hurdat_atl AL021867 33.3000 -76.0000 HU 90 2 33.1000 -75.8000 HU 90 13 24
1867209N18303 1867 11 NA NA NOT_NAMED 1867-08-01 21:00:00 TS 33.8635 -75.5634 main 121 109 P____________P AL021867 34.0002 -75.5729 HU 85 2 33.5900 -75.5445 HU 87 15 27
1867209N18303 1867 11 NA NA NOT_NAMED 1867-08-02 00:00:00 TS 34.5333 -75.1333 80 hurdat_atl main 118 92 O____________O hurdat_atl AL021867 34.7000 -75.1000 HU 80 1 34.2000 -75.2000 HU 85 15 27
1867209N18303 1867 11 NA NA NOT_NAMED 1867-08-02 03:00:00 TS 35.2006 -74.7420 main 98 84 P____________P AL021867 35.3423 -74.6913 HU 80 1 34.9172 -74.8432 HU 85 15 25
1867209N18303 1867 11 NA NA NOT_NAMED 1867-08-02 06:00:00 TS 35.9333 -74.3333 80 hurdat_atl main 108 108 O____________O hurdat_atl AL021867 36.0000 -74.3000 HU 80 1 35.8000 -74.4000 HU 85 17 23
1867209N18303 1867 11 NA NA NOT_NAMED 1867-08-02 09:00:00 TS 36.7516 -73.9337 main 173 160 P____________P AL021867 36.6962 -73.9782 HU 80 1 36.8624 -73.8448 HU 85 19 23
1867209N18303 1867 11 NA NA NOT_NAMED 1867-08-02 12:00:00 TS 37.6667 -73.4000 80 969 hurdat_atl main 162 162 O____________O hurdat_atl AL021867 37.5000 -73.5000 HU 80 969 1 38.0000 -73.2000 HU 85 969 22 27
1867209N18303 1867 11 NA NA NOT_NAMED 1867-08-02 15:00:00 TS 38.6736 -72.6852 main 163 149 P____________P AL021867 38.4672 -72.7490 HU 80 1 39.0864 -72.5575 HU 82 970 24 34
1867209N18303 1867 11 NA NA NOT_NAMED 1867-08-02 18:00:00 TS 39.7000 -71.6667 80 hurdat_atl main 144 103 O____________I hurdat_atl AL021867 39.5000 -71.6000 HU 80 1 40.1000 -71.8000 HU 80 972 27 42
1867209N18303 1867 11 NA NA NOT_NAMED 1867-08-02 21:00:00 TS 40.6377 -70.3661 main 103 74 P____________P AL021867 40.4596 -70.1056 HU 80 1 40.9939 -70.8871 HU 80 973 29 51
1867209N18303 1867 11 NA NA NOT_NAMED 1867-08-03 00:00:00 TS 41.5333 -68.6667 80 hurdat_atl main 110 110 O____________O hurdat_atl AL021867 41.4000 -68.1000 HU 80 1 41.8000 -69.8000 HU 80 975 34 58
1867209N18303 1867 11 NA NA NOT_NAMED 1867-08-03 03:00:00 TS 42.4472 -66.5157 main 138 57 P____________P AL021867 42.3884 -65.4986 HU 80 1 42.5647 -68.5499 HU 75 37 63
1867209N18303 1867 11 NA NA NOT_NAMED 1867-08-03 06:00:00 TS 43.2333 -64.2000 80 hurdat_atl main 82 79 O____________O hurdat_atl AL021867 43.2000 -62.7000 HU 80 1 43.3000 -67.2000 HU 70 35 67
1867209N18303 1867 11 NA NA NOT_NAMED 1867-08-03 09:00:00 TS 43.8118 -62.0934 main 114 104 P____________P AL021867 43.6944 -60.1842 HU 75 1 44.0464 -65.9119 HU 62 28 67
1867209N18303 1867 11 NA NA NOT_NAMED 1867-08-03 12:00:00 TS 44.3200 -60.6000 70 hurdat_atl main 107 99 O____________O hurdat_atl AL021867 44.0000 -58.0000 HU 70 1 44.8000 -64.5000 TS 55 21 58
1867209N18303 1867 11 NA NA NOT_NAMED 1867-08-03 15:00:00 TS 44.9157 -59.5754 main 99 89 P____________P AL021867 44.2572 -56.2321 HU 70 1 45.5741 -62.9186 TS 55 18 41
1867209N18303 1867 11 NA NA NOT_NAMED 1867-08-03 18:00:00 TS 45.7000 -58.9000 70 hurdat_atl main 88 68 O____________O hurdat_atl AL021867 44.5000 -54.7000 HU 70 1 46.3000 -61.0000 TS 55 21 18
1867209N18303 1867 11 NA NA NOT_NAMED 1867-08-03 21:00:00 TS 46.8836 -58.6801 main 77 11 _____________P AL021867 HU -1 46.8836 -58.6801 TS 52 26 49
1867209N18303 1867 11 NA NA NOT_NAMED 1867-08-04 00:00:00 TS 47.4000 -56.0000 main 7 0 _____________O 47.4000 -56.0000 TS 50 39 75
1867209N18303 1867 11 NA NA NOT_NAMED 1867-08-04 03:00:00 TS 47.8980 -53.0682 main 0 0 _____________P 47.8980 -53.0682 TS 50 41 76
1867209N18303 1867 11 NA NA NOT_NAMED 1867-08-04 06:00:00 ET 48.4000 -50.0000 main 209 209 _____________O 48.4000 -50.0000 EX 50 41 75
1867209N18303 1867 11 NA NA NOT_NAMED 1867-08-04 09:00:00 ET 48.9423 -46.9963 main 434 434 _____________P 48.9423 -46.9963 EX 45 41 74
1867209N18303 1867 11 NA NA NOT_NAMED 1867-08-04 12:00:00 ET 49.5000 -44.0000 main 659 659 _____________O 49.5000 -44.0000 EX 40 40 74
1867209N18303 1867 11 NA NA NOT_NAMED 1867-08-04 15:00:00 ET 50.0276 -41.0113 main 880 880 _____________P 50.0276 -41.0113 EX 40 40 75
1867209N18303 1867 11 NA NA NOT_NAMED 1867-08-04 18:00:00 ET 50.5000 -38.0000 main 1098 _____________O 50.5000 -38.0000 EX 40 39 76

About IBTrACS Database

This database is a web-friendly format of International Best Track Archive for Climate Stewardship (IBTrACS), a global best track data archive curated by NOAA dating back to 1842.

Updated: 2021-10-08